createdAt,value
2022-10-05T00:00:39.686Z,59.02
2022-10-05T00:01:44.041Z,59.07
2022-10-05T00:02:48.424Z,59.31
2022-10-05T00:03:52.773Z,59.09
2022-10-05T00:04:57.129Z,59.23
2022-10-05T00:06:01.322Z,59.13
2022-10-05T00:07:05.460Z,59.35
2022-10-05T00:08:09.618Z,59.38
2022-10-05T00:09:13.758Z,59.44
2022-10-05T00:10:17.890Z,59.36
2022-10-05T00:11:22.007Z,59.43
2022-10-05T00:12:26.204Z,59.21
2022-10-05T00:13:30.330Z,58.95
2022-10-05T00:14:34.466Z,58.96
2022-10-05T00:15:38.619Z,58.77
2022-10-05T00:16:43.050Z,58.87
2022-10-05T00:17:47.272Z,58.68
2022-10-05T00:18:51.435Z,58.44
2022-10-05T00:19:55.590Z,58.78
2022-10-05T00:20:59.752Z,58.52
2022-10-05T00:22:03.912Z,58.71
2022-10-05T00:23:08.065Z,58.78
2022-10-05T00:24:12.232Z,58.57
2022-10-05T00:25:16.387Z,58.84
2022-10-05T00:26:20.510Z,58.49
2022-10-05T00:27:24.635Z,58.73
2022-10-05T00:28:29.046Z,58.45
2022-10-05T00:29:33.286Z,58.18
2022-10-05T00:30:37.401Z,57.99
2022-10-05T00:31:41.740Z,58.24
2022-10-05T00:32:45.883Z,58.2
2022-10-05T00:33:49.995Z,58.28
2022-10-05T00:34:54.151Z,58.54
2022-10-05T00:35:58.286Z,58.52
2022-10-05T00:37:02.421Z,58.75
2022-10-05T00:38:06.524Z,58.55
2022-10-05T00:39:10.642Z,58.23
2022-10-05T00:40:14.807Z,58.51
2022-10-05T00:41:18.962Z,58.1
2022-10-05T00:42:23.095Z,57.9
2022-10-05T00:43:27.213Z,58.11
2022-10-05T00:44:31.325Z,58.08
2022-10-05T00:45:35.674Z,57.83
2022-10-05T00:46:39.828Z,58.17
2022-10-05T00:47:43.962Z,58.09
2022-10-05T00:48:48.096Z,57.84
2022-10-05T00:49:52.232Z,58.12
2022-10-05T00:50:56.374Z,57.97
2022-10-05T00:52:00.473Z,57.74
2022-10-05T00:53:04.590Z,57.92
2022-10-05T00:54:08.939Z,57.94
2022-10-05T00:55:13.071Z,57.95
2022-10-05T00:56:17.220Z,58.14
2022-10-05T00:57:21.337Z,58.07
2022-10-05T00:58:25.485Z,58.05
2022-10-05T00:59:29.613Z,58.22
2022-10-05T01:00:33.722Z,57.95
2022-10-05T01:01:38.106Z,57.94
2022-10-05T01:02:42.478Z,58.05
2022-10-05T01:03:46.630Z,57.84
2022-10-05T01:04:50.753Z,57.78
2022-10-05T01:05:54.927Z,58.03
2022-10-05T01:06:59.042Z,57.97
2022-10-05T01:08:03.175Z,58.23
2022-10-05T01:09:07.280Z,58.13
2022-10-05T01:10:11.388Z,58.3
2022-10-05T01:11:15.541Z,58.22
2022-10-05T01:12:19.668Z,58.08
2022-10-05T01:13:23.784Z,58.36
2022-10-05T01:14:27.967Z,58.24
2022-10-05T01:15:32.072Z,58.57
2022-10-05T01:16:36.500Z,58.53
2022-10-05T01:17:40.751Z,58.41
2022-10-05T01:18:44.877Z,58.39
2022-10-05T01:19:48.982Z,58.25
2022-10-05T01:20:53.135Z,58.4
2022-10-05T01:21:57.318Z,58.24
2022-10-05T01:23:01.488Z,58.66
2022-10-05T01:24:05.634Z,58.39
2022-10-05T01:25:09.852Z,58.33
2022-10-05T01:26:14.012Z,58.38
2022-10-05T01:27:18.189Z,58.07
2022-10-05T01:28:22.525Z,58.32
2022-10-05T01:29:26.713Z,58.13
2022-10-05T01:30:30.823Z,57.74
2022-10-05T01:31:35.197Z,57.96
2022-10-05T01:32:39.377Z,57.96
2022-10-05T01:33:43.529Z,57.88
2022-10-05T01:34:47.695Z,58.13
2022-10-05T01:35:51.828Z,57.94
2022-10-05T01:36:55.953Z,57.74
2022-10-05T01:38:00.097Z,57.94
2022-10-05T01:39:04.293Z,57.77
2022-10-05T01:40:08.453Z,57.5
2022-10-05T01:41:12.600Z,57.84
2022-10-05T01:42:16.748Z,57.7
2022-10-05T01:43:20.965Z,57.72
2022-10-05T01:44:27.647Z,57.83
2022-10-05T01:45:31.983Z,57.83
2022-10-05T01:46:36.190Z,58.15
2022-10-05T01:47:40.363Z,57.92
2022-10-05T01:48:44.469Z,57.99
2022-10-05T01:49:48.653Z,57.96
2022-10-05T01:50:52.794Z,57.75
2022-10-05T01:51:56.941Z,58.02
2022-10-05T01:53:01.070Z,57.88
2022-10-05T01:54:05.214Z,57.81
2022-10-05T01:55:09.358Z,57.95
2022-10-05T01:56:13.498Z,57.84
2022-10-05T01:57:17.669Z,58.09
2022-10-05T01:58:21.840Z,57.84
2022-10-05T01:59:25.988Z,57.86
2022-10-05T02:00:30.116Z,57.81
2022-10-05T02:01:34.557Z,57.43
2022-10-05T02:02:38.897Z,57.08
2022-10-05T02:03:43.028Z,57.06
2022-10-05T02:05:04.138Z,57.67
2022-10-05T02:06:08.270Z,57.79
2022-10-05T02:07:12.398Z,57.69
2022-10-05T02:08:16.493Z,57.88
2022-10-05T02:09:20.647Z,57.65
2022-10-05T02:10:24.798Z,57.61
2022-10-05T02:11:28.926Z,57.87
2022-10-05T02:12:33.041Z,57.66
2022-10-05T02:13:37.165Z,57.88
2022-10-05T02:14:41.291Z,57.75
2022-10-05T02:15:45.665Z,57.99
2022-10-05T02:16:50.912Z,58.04
2022-10-05T02:17:55.034Z,58.01
2022-10-05T02:18:59.139Z,58.18
2022-10-05T02:20:03.305Z,57.86
2022-10-05T02:21:07.441Z,57.52
2022-10-05T02:22:11.599Z,57.68
2022-10-05T02:23:15.750Z,57.59
2022-10-05T02:24:19.909Z,57.88
2022-10-05T02:25:24.061Z,57.63
2022-10-05T02:26:28.187Z,57.43
2022-10-05T02:27:32.421Z,57.59
2022-10-05T02:28:36.880Z,57.46
2022-10-05T02:29:41.014Z,57.47
2022-10-05T02:30:45.137Z,57.59
2022-10-05T02:31:49.467Z,57.5
2022-10-05T02:32:53.646Z,57.8
2022-10-05T02:33:57.760Z,57.59
2022-10-05T02:35:01.887Z,57.6
2022-10-05T02:36:06.003Z,57.7
2022-10-05T02:37:10.137Z,57.48
2022-10-05T02:38:14.284Z,57.71
2022-10-05T02:39:18.439Z,57.56
2022-10-05T02:40:22.584Z,57.79
2022-10-05T02:41:26.717Z,57.97
2022-10-05T02:42:30.962Z,57.79
2022-10-05T02:43:35.077Z,58
2022-10-05T02:44:39.180Z,57.85
2022-10-05T02:45:43.478Z,57.36
2022-10-05T02:46:54.569Z,57.46
2022-10-05T02:48:00.856Z,57.48
2022-10-05T02:49:04.997Z,57.47
2022-10-05T02:50:09.148Z,57.73
2022-10-05T02:51:13.271Z,57.62
2022-10-05T02:52:17.398Z,57.94
2022-10-05T02:53:21.519Z,57.73
2022-10-05T02:54:25.624Z,57.49
2022-10-05T02:55:29.731Z,57.56
2022-10-05T02:56:33.837Z,57.23
2022-10-05T02:57:37.944Z,57.58
2022-10-05T02:58:42.098Z,57.63
2022-10-05T02:59:46.241Z,57.46
2022-10-05T03:00:50.560Z,57.76
2022-10-05T03:01:54.784Z,57.64
2022-10-05T03:02:58.938Z,57.33
2022-10-05T03:04:03.044Z,57.52
2022-10-05T03:05:07.161Z,57.27
2022-10-05T03:06:11.299Z,57.5
2022-10-05T03:07:15.404Z,57.44
2022-10-05T03:08:19.500Z,57.36
2022-10-05T03:09:23.635Z,57.54
2022-10-05T03:10:27.773Z,57.27
2022-10-05T03:11:31.875Z,57.47
2022-10-05T03:12:35.993Z,57
2022-10-05T03:13:40.127Z,56.82
2022-10-05T03:14:44.244Z,56.93
2022-10-05T03:15:48.528Z,56.71
2022-10-05T03:16:52.674Z,56.83
2022-10-05T03:17:56.793Z,56.37
2022-10-05T03:19:00.904Z,56.32
2022-10-05T03:20:05.000Z,56
2022-10-05T03:21:09.143Z,55.82
2022-10-05T03:22:13.268Z,55.9
2022-10-05T03:23:17.421Z,55.5
2022-10-05T03:24:21.536Z,55.8
2022-10-05T03:25:25.642Z,55.55
2022-10-05T03:26:29.736Z,55.62
2022-10-05T03:27:33.843Z,55.75
2022-10-05T03:28:38.175Z,55.59
2022-10-05T03:29:42.366Z,55.95
2022-10-05T03:30:46.654Z,55.82
2022-10-05T03:31:50.842Z,56.17
2022-10-05T03:32:54.934Z,56.08
2022-10-05T03:33:59.049Z,55.79
2022-10-05T03:35:03.164Z,56.13
2022-10-05T03:36:07.272Z,56.08
2022-10-05T03:37:11.354Z,56.09
2022-10-05T03:38:15.474Z,56.12
2022-10-05T03:39:19.585Z,56.27
2022-10-05T03:40:23.731Z,56.8
2022-10-05T03:41:27.870Z,56.66
2022-10-05T03:42:31.999Z,56.51
2022-10-05T03:43:36.109Z,56.09
2022-10-05T03:44:40.267Z,55.64
2022-10-05T03:45:44.389Z,55.76
2022-10-05T03:46:49.776Z,55.48
2022-10-05T03:48:01.247Z,55.21
2022-10-05T03:49:05.667Z,55.12
2022-10-05T03:50:09.804Z,55.32
2022-10-05T03:51:13.926Z,54.8
2022-10-05T03:52:18.103Z,54.65
2022-10-05T03:53:22.225Z,54.04
2022-10-05T03:54:26.445Z,54.81
2022-10-05T03:55:30.560Z,55.18
2022-10-05T03:56:34.692Z,54.95
2022-10-05T03:57:38.822Z,54.83
2022-10-05T03:58:42.925Z,54.8
2022-10-05T03:59:47.039Z,54.76
2022-10-05T04:00:51.173Z,54.8
2022-10-05T04:01:55.539Z,55.18
2022-10-05T04:02:59.865Z,55.4
2022-10-05T04:04:04.030Z,55.39
2022-10-05T04:05:08.226Z,55.15
2022-10-05T04:06:12.370Z,55.12
2022-10-05T04:07:16.475Z,54.78
2022-10-05T04:08:20.626Z,54.9
2022-10-05T04:09:24.763Z,54.67
2022-10-05T04:10:28.870Z,55.03
2022-10-05T04:11:33.005Z,55.01
2022-10-05T04:12:37.147Z,54.54
2022-10-05T04:13:41.287Z,54.62
2022-10-05T04:14:45.417Z,54.69
2022-10-05T04:15:49.753Z,54.64
2022-10-05T04:16:53.951Z,54.46
2022-10-05T04:17:58.095Z,54.89
2022-10-05T04:19:02.233Z,54.69
2022-10-05T04:20:06.384Z,55.31
2022-10-05T04:21:10.551Z,54.87
2022-10-05T04:22:14.652Z,55.1
2022-10-05T04:23:21.557Z,55.24
2022-10-05T04:24:25.663Z,55.19
2022-10-05T04:25:29.780Z,54.96
2022-10-05T04:26:33.905Z,55.55
2022-10-05T04:27:38.010Z,55.29
2022-10-05T04:28:42.392Z,55.68
2022-10-05T04:29:46.569Z,55.74
2022-10-05T04:30:50.702Z,55.98
2022-10-05T04:31:55.091Z,55.99
2022-10-05T04:32:59.250Z,56.12
2022-10-05T04:34:03.363Z,55.98
2022-10-05T04:35:07.486Z,56.01
2022-10-05T04:36:11.593Z,56.15
2022-10-05T04:37:15.738Z,56.22
2022-10-05T04:38:19.868Z,56.31
2022-10-05T04:39:23.968Z,56.6
2022-10-05T04:40:28.068Z,56.38
2022-10-05T04:41:32.177Z,56.37
2022-10-05T04:42:36.418Z,56.47
2022-10-05T04:43:40.510Z,56.59
2022-10-05T04:44:44.601Z,56.73
2022-10-05T04:45:48.714Z,56.88
2022-10-05T04:46:53.373Z,56.99
2022-10-05T04:47:57.542Z,57.26
2022-10-05T04:49:01.668Z,57.13
2022-10-05T04:50:05.808Z,57.23
2022-10-05T04:51:09.913Z,57.54
2022-10-05T04:52:14.026Z,57.31
2022-10-05T04:53:18.182Z,57.32
2022-10-05T04:54:22.316Z,57.49
2022-10-05T04:55:26.432Z,57.51
2022-10-05T04:56:30.565Z,57.64
2022-10-05T04:57:34.712Z,57.77
2022-10-05T04:58:44.103Z,57.83
2022-10-05T04:59:48.199Z,57.99
2022-10-05T05:00:52.524Z,58.11
2022-10-05T05:01:56.748Z,58.12
2022-10-05T05:03:00.869Z,58.24
2022-10-05T05:04:05.283Z,58.23
2022-10-05T05:05:09.423Z,58.2
2022-10-05T05:06:19.725Z,58.29
2022-10-05T05:07:23.850Z,58.32
2022-10-05T05:08:27.956Z,58.3
2022-10-05T05:09:32.061Z,58.36
2022-10-05T05:10:36.179Z,58.37
2022-10-05T05:11:40.334Z,58.41
2022-10-05T05:12:44.437Z,58.4
2022-10-05T05:13:48.520Z,58.4
2022-10-05T05:14:52.661Z,58.41
2022-10-05T05:15:57.019Z,58.38
2022-10-05T05:17:01.164Z,58.45
2022-10-05T05:18:05.291Z,58.45
2022-10-05T05:19:09.376Z,58.47
2022-10-05T05:20:13.551Z,58.46
2022-10-05T05:21:17.688Z,58.37
2022-10-05T05:22:21.895Z,58.51
2022-10-05T05:23:25.998Z,58.49
2022-10-05T05:24:30.108Z,58.53
2022-10-05T05:25:34.246Z,58.42
2022-10-05T05:26:41.019Z,58.46
2022-10-05T05:27:45.137Z,58.58
2022-10-05T05:28:49.257Z,58.56
2022-10-05T05:29:53.366Z,58.53
2022-10-05T05:30:57.703Z,58.56
2022-10-05T05:32:01.796Z,58.54
2022-10-05T05:33:05.980Z,58.42
2022-10-05T05:34:10.090Z,58.59
2022-10-05T05:35:14.183Z,58.63
2022-10-05T05:36:24.628Z,58.63
2022-10-05T05:37:28.708Z,58.64
2022-10-05T05:38:32.825Z,58.69
2022-10-05T05:39:36.940Z,58.59
2022-10-05T05:40:41.102Z,58.66
2022-10-05T05:41:45.484Z,58.65
2022-10-05T05:42:49.917Z,58.67
2022-10-05T05:43:54.065Z,58.65
2022-10-05T05:44:58.356Z,58.61
2022-10-05T05:46:02.529Z,58.6
2022-10-05T05:47:08.672Z,58.52
2022-10-05T05:48:13.060Z,58.71
2022-10-05T05:49:17.313Z,58.64
2022-10-05T05:50:21.625Z,58.7
2022-10-05T05:51:25.820Z,58.69
2022-10-05T05:52:30.010Z,58.66
2022-10-05T05:53:34.249Z,58.54
2022-10-05T05:54:38.389Z,58.77
2022-10-05T05:55:42.583Z,58.67
2022-10-05T05:56:48.112Z,58.78
2022-10-05T05:57:52.477Z,58.79
2022-10-05T05:58:56.928Z,58.76
2022-10-05T06:00:01.182Z,58.68
2022-10-05T06:01:05.379Z,58.78
2022-10-05T06:02:09.825Z,58.74
2022-10-05T06:03:14.491Z,58.75
2022-10-05T06:04:18.704Z,58.77
2022-10-05T06:05:22.917Z,58.66
2022-10-05T06:06:27.101Z,58.83
2022-10-05T06:07:32.838Z,58.77
2022-10-05T06:08:37.077Z,58.77
2022-10-05T06:09:41.298Z,58.79
2022-10-05T06:10:47.903Z,58.81
2022-10-05T06:11:52.154Z,58.81
2022-10-05T06:13:02.801Z,58.83
2022-10-05T06:14:06.974Z,58.83
2022-10-05T06:15:11.176Z,58.73
2022-10-05T06:16:15.553Z,58.76
2022-10-05T06:17:19.766Z,58.87
2022-10-05T06:18:24.026Z,58.84
2022-10-05T06:19:28.189Z,58.79
2022-10-05T06:20:32.436Z,58.86
2022-10-05T06:21:36.666Z,58.83
2022-10-05T06:22:40.864Z,58.9
2022-10-05T06:23:45.269Z,58.81
2022-10-05T06:24:52.321Z,58.94
2022-10-05T06:25:56.569Z,58.82
2022-10-05T06:27:00.841Z,58.8
2022-10-05T06:28:05.383Z,58.83
2022-10-05T06:29:09.671Z,58.92
2022-10-05T06:30:14.078Z,58.91
2022-10-05T06:31:18.576Z,58.93
2022-10-05T06:32:22.839Z,58.91
2022-10-05T06:33:27.110Z,58.89
2022-10-05T06:34:31.348Z,58.95
2022-10-05T06:35:35.523Z,58.96
2022-10-05T06:36:39.756Z,58.81
2022-10-05T06:37:43.944Z,58.9
2022-10-05T06:38:48.154Z,58.86
2022-10-05T06:39:52.393Z,58.86
2022-10-05T06:40:56.691Z,58.76
2022-10-05T06:42:00.923Z,58.74
2022-10-05T06:43:05.158Z,58.75
2022-10-05T06:44:09.322Z,58.71
2022-10-05T06:45:13.569Z,58.64
2022-10-05T06:46:18.111Z,58.54
2022-10-05T06:47:25.429Z,58.52
2022-10-05T06:48:29.709Z,58.44
2022-10-05T06:49:33.889Z,58.32
2022-10-05T06:50:38.119Z,58.29
2022-10-05T06:51:42.315Z,58.42
2022-10-05T06:52:46.510Z,58.41
2022-10-05T06:53:50.677Z,58.43
2022-10-05T06:54:57.688Z,58.31
2022-10-05T06:56:02.017Z,58.38
2022-10-05T06:57:06.170Z,58.36
2022-10-05T06:58:10.498Z,58.45
2022-10-05T06:59:14.968Z,58.49
2022-10-05T07:00:19.217Z,58.55
2022-10-05T07:01:23.654Z,58.52
2022-10-05T07:02:28.322Z,58.54
2022-10-05T07:03:32.570Z,58.57
2022-10-05T07:04:39.069Z,58.6
2022-10-05T07:05:43.258Z,58.52
2022-10-05T07:06:47.408Z,58.5
2022-10-05T07:07:51.565Z,58.52
2022-10-05T07:08:55.739Z,58.56
2022-10-05T07:09:59.959Z,58.52
2022-10-05T07:11:04.164Z,58.5
2022-10-05T07:12:09.378Z,58.44
2022-10-05T07:13:13.690Z,58.4
2022-10-05T07:14:17.889Z,58.34
2022-10-05T07:15:23.327Z,58.36
2022-10-05T07:16:27.823Z,58.37
2022-10-05T07:17:32.061Z,58.31
2022-10-05T07:18:36.255Z,58.3
2022-10-05T07:19:40.500Z,58.29
2022-10-05T07:20:50.883Z,58.33
2022-10-05T07:21:55.391Z,58.32
2022-10-05T07:22:59.597Z,58.31
2022-10-05T07:24:03.852Z,58.32
2022-10-05T07:25:08.035Z,58.31
2022-10-05T07:26:12.235Z,58.31
2022-10-05T07:27:16.425Z,58.32
2022-10-05T07:28:20.767Z,58.33
2022-10-05T07:29:24.962Z,58.3
2022-10-05T07:30:29.347Z,58.36
2022-10-05T07:31:33.535Z,58.35
2022-10-05T07:32:37.692Z,58.35
2022-10-05T07:33:41.925Z,58.47
2022-10-05T07:34:46.144Z,58.4
2022-10-05T07:35:50.306Z,58.35
2022-10-05T07:36:58.022Z,58.33
2022-10-05T07:38:02.628Z,58.38
2022-10-05T07:39:06.803Z,58.49
2022-10-05T07:40:11.052Z,58.46
2022-10-05T07:41:15.298Z,58.38
2022-10-05T07:42:19.541Z,58.33
2022-10-05T07:43:23.791Z,58.36
2022-10-05T07:44:28.011Z,58.41
2022-10-05T07:45:32.429Z,58.48
2022-10-05T07:46:36.595Z,58.5
2022-10-05T07:47:40.803Z,58.52
2022-10-05T07:48:44.990Z,58.45
2022-10-05T07:49:49.322Z,58.39
2022-10-05T07:50:53.640Z,58.34
2022-10-05T07:51:57.847Z,58.31
2022-10-05T07:53:04.615Z,58.35
2022-10-05T07:54:08.819Z,58.4
2022-10-05T07:55:13.002Z,58.58
2022-10-05T07:56:17.128Z,58.44
2022-10-05T07:57:21.293Z,58.5
2022-10-05T07:58:25.573Z,58.49
2022-10-05T07:59:29.792Z,58.5
2022-10-05T08:00:34.066Z,58.57
2022-10-05T08:01:38.752Z,58.58
2022-10-05T08:02:43.440Z,58.54
2022-10-05T08:03:47.713Z,58.44
2022-10-05T08:04:51.915Z,58.44
2022-10-05T08:05:56.147Z,58.52
2022-10-05T08:07:00.311Z,58.47
2022-10-05T08:08:04.524Z,58.42
2022-10-05T08:09:08.715Z,58.5
2022-10-05T08:10:12.966Z,58.38
2022-10-05T08:11:17.160Z,57.94
2022-10-05T08:12:21.337Z,57.82
2022-10-05T08:13:25.531Z,57.95
2022-10-05T08:14:29.688Z,58.12
2022-10-05T08:15:34.001Z,58.17
2022-10-05T08:16:38.224Z,58.16
2022-10-05T08:17:42.359Z,57.66
2022-10-05T08:18:46.505Z,57.58
2022-10-05T08:19:52.049Z,57.78
2022-10-05T08:20:56.360Z,57.98
2022-10-05T08:22:02.551Z,58.12
2022-10-05T08:23:06.759Z,58.17
2022-10-05T08:24:10.898Z,58.24
2022-10-05T08:25:15.124Z,58.25
2022-10-05T08:26:21.003Z,58.24
2022-10-05T08:27:25.141Z,58.22
2022-10-05T08:28:29.546Z,58.16
2022-10-05T08:29:33.682Z,58.15
2022-10-05T08:30:37.866Z,58.17
2022-10-05T08:31:42.211Z,58.18
2022-10-05T08:32:46.401Z,58.13
2022-10-05T08:33:50.588Z,58.12
2022-10-05T08:34:54.732Z,58.09
2022-10-05T08:35:58.952Z,58.08
2022-10-05T08:37:03.146Z,58.06
2022-10-05T08:38:07.280Z,58.04
2022-10-05T08:39:11.417Z,58.01
2022-10-05T08:40:15.615Z,57.96
2022-10-05T08:41:19.748Z,57.96
2022-10-05T08:42:23.907Z,57.95
2022-10-05T08:43:35.240Z,57.91
2022-10-05T08:44:39.652Z,57.87
2022-10-05T08:45:44.102Z,57.9
2022-10-05T08:46:48.283Z,57.91
2022-10-05T08:47:52.436Z,57.9
2022-10-05T08:48:56.644Z,57.91
2022-10-05T08:50:00.813Z,57.91
2022-10-05T08:51:05.000Z,57.83
2022-10-05T08:52:09.202Z,57.8
2022-10-05T08:53:13.360Z,57.79
2022-10-05T08:54:17.491Z,57.75
2022-10-05T08:55:21.718Z,57.72
2022-10-05T08:56:30.564Z,57.72
2022-10-05T08:57:34.765Z,57.73
2022-10-05T08:58:38.965Z,57.77
2022-10-05T08:59:43.099Z,57.86
2022-10-05T09:00:47.367Z,57.89
2022-10-05T09:01:52.349Z,57.94
2022-10-05T09:02:56.850Z,57.96
2022-10-05T09:04:01.086Z,58.03
2022-10-05T09:05:05.316Z,58.05
2022-10-05T09:06:09.521Z,58.05
2022-10-05T09:07:13.686Z,58.1
2022-10-05T09:08:17.868Z,58.15
2022-10-05T09:09:21.996Z,58.17
2022-10-05T09:10:26.128Z,58.2
2022-10-05T09:11:30.283Z,58.23
2022-10-05T09:12:34.438Z,58.28
2022-10-05T09:13:38.577Z,58.29
2022-10-05T09:14:42.690Z,58.28
2022-10-05T09:15:47.010Z,58.28
2022-10-05T09:16:51.200Z,58.31
2022-10-05T09:17:55.336Z,58.33
2022-10-05T09:18:59.492Z,58.35
2022-10-05T09:20:03.629Z,58.38
2022-10-05T09:21:07.750Z,58.37
2022-10-05T09:22:11.858Z,58.34
2022-10-05T09:23:15.976Z,58.41
2022-10-05T09:24:20.129Z,58.41
2022-10-05T09:25:24.220Z,58.43
2022-10-05T09:26:28.327Z,58.45
2022-10-05T09:27:32.469Z,58.45
2022-10-05T09:28:36.780Z,58.48
2022-10-05T09:29:41.037Z,58.46
2022-10-05T09:30:45.721Z,58.5
2022-10-05T09:31:50.713Z,58.51
2022-10-05T09:32:54.885Z,58.53
2022-10-05T09:33:59.019Z,58.57
2022-10-05T09:35:03.173Z,58.55
2022-10-05T09:36:07.327Z,58.53
2022-10-05T09:37:11.994Z,58.56
2022-10-05T09:38:16.092Z,58.54
2022-10-05T09:39:20.220Z,58.54
2022-10-05T09:40:24.380Z,58.51
2022-10-05T09:41:28.491Z,58.5
2022-10-05T09:42:32.608Z,58.47
2022-10-05T09:43:37.045Z,58.46
2022-10-05T09:44:41.389Z,58.43
2022-10-05T09:45:45.613Z,58.33
2022-10-05T09:46:49.732Z,58.35
2022-10-05T09:47:53.832Z,58.34
2022-10-05T09:48:57.970Z,58.3
2022-10-05T09:50:02.104Z,58.32
2022-10-05T09:51:06.405Z,58.35
2022-10-05T09:52:12.307Z,58.33
2022-10-05T09:53:19.248Z,58.37
2022-10-05T09:54:23.460Z,58.42
2022-10-05T09:55:27.619Z,58.48
2022-10-05T09:56:31.835Z,58.53
2022-10-05T09:57:35.948Z,58.56
2022-10-05T09:58:40.082Z,58.55
2022-10-05T09:59:44.189Z,58.55
2022-10-05T10:01:32.416Z,58.55
2022-10-05T10:02:37.662Z,58.54
2022-10-05T10:03:41.936Z,58.49
2022-10-05T10:04:46.070Z,58.53
2022-10-05T10:05:50.195Z,58.54
2022-10-05T10:06:54.358Z,58.53
2022-10-05T10:07:58.531Z,58.56
2022-10-05T10:09:02.669Z,58.56
2022-10-05T10:10:06.784Z,58.56
2022-10-05T10:11:10.979Z,58.55
2022-10-05T10:12:15.095Z,58.58
2022-10-05T10:13:19.221Z,58.55
2022-10-05T10:14:23.317Z,58.55
2022-10-05T10:15:27.444Z,58.56
2022-10-05T10:16:31.581Z,58.55
2022-10-05T10:17:35.753Z,58.54
2022-10-05T10:18:39.921Z,58.55
2022-10-05T10:19:44.095Z,58.56
2022-10-05T10:20:48.258Z,58.55
2022-10-05T10:21:52.402Z,58.51
2022-10-05T10:22:56.528Z,58.53
2022-10-05T10:24:00.699Z,58.52
2022-10-05T10:25:04.811Z,58.53
2022-10-05T10:26:08.931Z,58.53
2022-10-05T10:27:13.058Z,58.54
2022-10-05T10:28:17.513Z,58.49
2022-10-05T10:29:21.927Z,58.48
2022-10-05T10:30:32.039Z,58.46
2022-10-05T10:31:39.751Z,58.47
2022-10-05T10:32:43.887Z,58.5
2022-10-05T10:33:48.036Z,58.51
2022-10-05T10:34:52.168Z,58.55
2022-10-05T10:35:56.282Z,58.58
2022-10-05T10:37:00.379Z,58.6
2022-10-05T10:38:04.492Z,58.54
2022-10-05T10:39:08.649Z,58.56
2022-10-05T10:40:12.785Z,58.56
2022-10-05T10:41:16.952Z,58.56
2022-10-05T10:42:27.424Z,58.55
2022-10-05T10:43:31.642Z,58.54
2022-10-05T10:44:35.789Z,58.55
2022-10-05T10:45:39.946Z,58.52
2022-10-05T10:46:44.228Z,58.48
2022-10-05T10:47:48.410Z,58.52
2022-10-05T10:48:52.532Z,58.51
2022-10-05T10:49:56.673Z,58.46
2022-10-05T10:51:00.785Z,58.45
2022-10-05T10:52:04.915Z,58.42
2022-10-05T10:53:09.050Z,58.42
2022-10-05T10:54:13.185Z,58.4
2022-10-05T10:55:17.306Z,58.36
2022-10-05T10:56:21.461Z,58.32
2022-10-05T10:57:25.571Z,58.32
2022-10-05T10:59:34.914Z,58.33
2022-10-05T11:00:39.024Z,58.29
2022-10-05T11:01:43.383Z,58.28
2022-10-05T11:02:47.741Z,58.25
2022-10-05T11:03:51.910Z,58.27
2022-10-05T11:04:56.019Z,58.23
2022-10-05T11:06:00.151Z,58.24
2022-10-05T11:07:04.295Z,58.27
2022-10-05T11:08:08.556Z,58.25
2022-10-05T11:09:12.717Z,58.23
2022-10-05T11:10:16.970Z,58.29
2022-10-05T11:11:21.085Z,58.31
2022-10-05T11:12:25.223Z,58.31
2022-10-05T11:13:29.398Z,58.33
2022-10-05T11:14:33.556Z,58.3
2022-10-05T11:15:37.826Z,58.31
2022-10-05T11:16:41.986Z,58.31
2022-10-05T11:17:46.119Z,58.35
2022-10-05T11:18:50.239Z,58.35
2022-10-05T11:20:06.607Z,58.38
2022-10-05T11:21:10.790Z,58.35
2022-10-05T11:22:14.951Z,58.34
2022-10-05T11:23:19.100Z,58.38
2022-10-05T11:24:23.213Z,58.37
2022-10-05T11:25:27.328Z,58.4
2022-10-05T11:26:31.454Z,58.43
2022-10-05T11:27:35.590Z,58.48
2022-10-05T11:28:40.131Z,58.49
2022-10-05T11:29:44.297Z,58.48
2022-10-05T11:30:52.609Z,58.47
2022-10-05T11:31:57.143Z,58.44
2022-10-05T11:33:01.340Z,58.44
2022-10-05T11:34:05.505Z,58.43
2022-10-05T11:35:09.640Z,58.42
2022-10-05T11:36:13.755Z,58.44
2022-10-05T11:37:17.871Z,58.47
2022-10-05T11:38:21.986Z,58.48
2022-10-05T11:39:26.136Z,58.48
2022-10-05T11:40:30.257Z,58.45
2022-10-05T11:41:34.405Z,58.5
2022-10-05T11:42:38.548Z,58.5
2022-10-05T11:43:42.805Z,58.51
2022-10-05T11:44:46.926Z,58.49
2022-10-05T11:45:51.012Z,58.48
2022-10-05T11:46:55.407Z,58.52
2022-10-05T11:47:59.574Z,58.48
2022-10-05T11:49:03.737Z,58.5
2022-10-05T11:50:07.861Z,58.51
2022-10-05T11:51:12.002Z,58.47
2022-10-05T11:52:16.107Z,58.42
2022-10-05T11:53:20.286Z,58.42
2022-10-05T11:54:24.423Z,58.46
2022-10-05T11:55:28.608Z,58.46
2022-10-05T11:56:32.741Z,58.47
2022-10-05T11:57:36.869Z,58.51
2022-10-05T11:58:41.002Z,58.44
2022-10-05T11:59:45.116Z,58.48
2022-10-05T12:00:49.292Z,58.48
2022-10-05T12:01:53.437Z,58.54
2022-10-05T12:02:57.993Z,58.56
2022-10-05T12:04:02.645Z,58.46
2022-10-05T12:05:06.822Z,58.35
2022-10-05T12:06:10.979Z,58.42
2022-10-05T12:07:15.099Z,58.46
2022-10-05T12:08:19.309Z,58.32
2022-10-05T12:09:23.471Z,58.31
2022-10-05T12:10:27.714Z,58.44
2022-10-05T12:11:31.904Z,58.38
2022-10-05T12:12:36.045Z,58.13
2022-10-05T12:13:40.141Z,58.3
2022-10-05T12:14:44.254Z,58.42
2022-10-05T12:15:48.570Z,58.48
2022-10-05T12:16:53.149Z,58.28
2022-10-05T12:17:57.314Z,57.84
2022-10-05T12:19:01.496Z,57.55
2022-10-05T12:20:05.819Z,57.72
2022-10-05T12:21:09.970Z,57.8
2022-10-05T12:22:14.112Z,58.19
2022-10-05T12:23:18.268Z,58.12
2022-10-05T12:24:28.462Z,58.21
2022-10-05T12:25:32.598Z,58.33
2022-10-05T12:26:36.707Z,58.41
2022-10-05T12:27:40.845Z,58.11
2022-10-05T12:28:44.970Z,57.79
2022-10-05T12:29:49.102Z,57.62
2022-10-05T12:30:53.210Z,57.71
2022-10-05T12:31:57.342Z,58.06
2022-10-05T12:33:04.329Z,58.21
2022-10-05T12:34:08.454Z,58.39
2022-10-05T12:35:12.578Z,58.47
2022-10-05T12:36:16.705Z,58.53
2022-10-05T12:37:20.850Z,58.64
2022-10-05T12:38:25.060Z,58.59
2022-10-05T12:39:29.189Z,58.58
2022-10-05T12:40:33.308Z,58.62
2022-10-05T12:41:38.060Z,58.67
2022-10-05T12:42:43.844Z,58.69
2022-10-05T12:43:48.000Z,58.71
2022-10-05T12:44:52.105Z,58.55
2022-10-05T12:45:56.389Z,58.57
2022-10-05T12:47:00.536Z,58.58
2022-10-05T12:48:04.750Z,58.58
2022-10-05T12:49:09.038Z,58.46
2022-10-05T12:50:13.297Z,58.52
2022-10-05T12:51:17.442Z,58.25
2022-10-05T12:52:21.573Z,58.11
2022-10-05T12:53:25.699Z,57.86
2022-10-05T12:54:29.861Z,58.15
2022-10-05T12:55:33.994Z,58.32
2022-10-05T12:56:38.161Z,58.54
2022-10-05T12:57:42.294Z,58.65
2022-10-05T12:58:46.449Z,58.7
2022-10-05T12:59:50.655Z,58.75
2022-10-05T13:00:55.042Z,58.69
2022-10-05T13:01:59.370Z,58.73
2022-10-05T13:03:03.842Z,58.76
2022-10-05T13:04:08.107Z,58.48
2022-10-05T13:05:12.211Z,58.58
2022-10-05T13:06:17.072Z,58.6
2022-10-05T13:07:21.552Z,58.61
2022-10-05T13:08:25.734Z,58.29
2022-10-05T13:09:29.858Z,58.32
2022-10-05T13:10:33.976Z,58.59
2022-10-05T13:11:38.107Z,58.73
2022-10-05T13:12:42.245Z,58.74
2022-10-05T13:13:46.337Z,58.78
2022-10-05T13:14:50.442Z,58.82
2022-10-05T13:15:55.450Z,58.9
2022-10-05T13:17:00.337Z,58.92
2022-10-05T13:18:04.441Z,58.92
2022-10-05T13:19:08.587Z,58.87
2022-10-05T13:20:12.857Z,58.87
2022-10-05T13:21:17.003Z,58.86
2022-10-05T13:22:21.743Z,58.9
2022-10-05T13:23:26.016Z,58.87
2022-10-05T13:24:30.147Z,58.92
2022-10-05T13:25:34.235Z,58.86
2022-10-05T13:26:38.392Z,58.9
2022-10-05T13:27:42.523Z,58.9
2022-10-05T13:28:46.979Z,58.89
2022-10-05T13:29:56.150Z,58.94
2022-10-05T13:31:00.284Z,58.87
2022-10-05T13:32:04.564Z,58.92
2022-10-05T13:33:08.862Z,58.9
2022-10-05T13:34:12.995Z,58.74
2022-10-05T13:35:17.339Z,58.69
2022-10-05T13:36:21.455Z,58.78
2022-10-05T13:37:25.742Z,58.86
2022-10-05T13:38:29.872Z,58.9
2022-10-05T13:39:34.005Z,58.9
2022-10-05T13:40:38.147Z,58.93
2022-10-05T13:41:42.337Z,58.89
2022-10-05T13:42:46.458Z,58.81
2022-10-05T13:43:50.576Z,58.89
2022-10-05T13:44:54.686Z,58.96
2022-10-05T13:45:59.452Z,59.01
2022-10-05T13:47:03.592Z,58.79
2022-10-05T13:48:07.789Z,58.57
2022-10-05T13:49:12.074Z,58.68
2022-10-05T13:50:16.196Z,58.87
2022-10-05T13:51:20.334Z,59.01
2022-10-05T13:52:24.529Z,59.08
2022-10-05T13:53:28.736Z,59
2022-10-05T13:54:35.699Z,59.05